sensor_id;sensor_type;location;lat;lon;timestamp;P1;durP1;ratioP1;P2;durP2;ratioP2
36787;SDS011;22738;45.560;9.434;2023-07-13T00:04:50;5.87;;;2.27;;
36787;SDS011;22738;45.560;9.434;2023-07-13T00:11:31;6.68;;;2.75;;
36787;SDS011;22738;45.560;9.434;2023-07-13T00:18:14;8.43;;;3.38;;
36787;SDS011;22738;45.560;9.434;2023-07-13T00:24:55;4.90;;;2.80;;
36787;SDS011;22738;45.560;9.434;2023-07-13T00:31:37;5.68;;;2.65;;
36787;SDS011;22738;45.560;9.434;2023-07-13T00:38:19;6.97;;;2.63;;
36787;SDS011;22738;45.560;9.434;2023-07-13T00:51:54;9.55;;;3.78;;
36787;SDS011;22738;45.560;9.434;2023-07-13T00:58:38;14.38;;;4.03;;
36787;SDS011;22738;45.560;9.434;2023-07-13T01:05:20;6.07;;;3.17;;
36787;SDS011;22738;45.560;9.434;2023-07-13T01:12:04;7.10;;;3.00;;
36787;SDS011;22738;45.560;9.434;2023-07-13T01:18:46;5.80;;;2.90;;
36787;SDS011;22738;45.560;9.434;2023-07-13T01:25:27;5.65;;;3.10;;
36787;SDS011;22738;45.560;9.434;2023-07-13T01:32:09;4.78;;;2.97;;
36787;SDS011;22738;45.560;9.434;2023-07-13T01:45:34;8.43;;;3.95;;
36787;SDS011;22738;45.560;9.434;2023-07-13T01:52:17;7.80;;;3.83;;
36787;SDS011;22738;45.560;9.434;2023-07-13T01:58:58;5.70;;;3.70;;
36787;SDS011;22738;45.560;9.434;2023-07-13T02:05:41;10.30;;;4.75;;
36787;SDS011;22738;45.560;9.434;2023-07-13T02:12:23;12.55;;;4.57;;
36787;SDS011;22738;45.560;9.434;2023-07-13T02:19:05;10.70;;;4.90;;
36787;SDS011;22738;45.560;9.434;2023-07-13T02:25:47;6.97;;;4.80;;
36787;SDS011;22738;45.560;9.434;2023-07-13T02:32:30;11.40;;;5.20;;
36787;SDS011;22738;45.560;9.434;2023-07-13T02:39:11;14.75;;;5.28;;
36787;SDS011;22738;45.560;9.434;2023-07-13T02:45:54;7.00;;;4.67;;
36787;SDS011;22738;45.560;9.434;2023-07-13T02:52:35;12.75;;;5.28;;
36787;SDS011;22738;45.560;9.434;2023-07-13T02:59:16;7.05;;;4.30;;
36787;SDS011;22738;45.560;9.434;2023-07-13T03:05:59;10.45;;;5.30;;
36787;SDS011;22738;45.560;9.434;2023-07-13T03:12:48;10.13;;;4.80;;
36787;SDS011;22738;45.560;9.434;2023-07-13T03:19:38;6.43;;;4.45;;
36787;SDS011;22738;45.560;9.434;2023-07-13T03:26:20;8.40;;;3.97;;
36787;SDS011;22738;45.560;9.434;2023-07-13T03:33:02;6.50;;;3.95;;
36787;SDS011;22738;45.560;9.434;2023-07-13T03:39:44;7.75;;;3.67;;
36787;SDS011;22738;45.560;9.434;2023-07-13T03:46:28;7.85;;;4.30;;
36787;SDS011;22738;45.560;9.434;2023-07-13T03:53:11;13.38;;;4.60;;
36787;SDS011;22738;45.560;9.434;2023-07-13T03:59:53;11.63;;;4.90;;
36787;SDS011;22738;45.560;9.434;2023-07-13T04:06:35;6.22;;;4.13;;
36787;SDS011;22738;45.560;9.434;2023-07-13T04:13:16;10.10;;;4.47;;
36787;SDS011;22738;45.560;9.434;2023-07-13T04:19:57;7.35;;;3.78;;
36787;SDS011;22738;45.560;9.434;2023-07-13T04:26:38;5.15;;;3.47;;
36787;SDS011;22738;45.560;9.434;2023-07-13T04:33:21;6.80;;;3.60;;
36787;SDS011;22738;45.560;9.434;2023-07-13T04:40:03;6.93;;;3.57;;
36787;SDS011;22738;45.560;9.434;2023-07-13T04:46:44;7.03;;;4.05;;
36787;SDS011;22738;45.560;9.434;2023-07-13T04:53:25;10.95;;;3.55;;
36787;SDS011;22738;45.560;9.434;2023-07-13T05:00:09;3.83;;;2.10;;
36787;SDS011;22738;45.560;9.434;2023-07-13T05:06:51;4.78;;;2.33;;
36787;SDS011;22738;45.560;9.434;2023-07-13T05:13:32;5.45;;;2.45;;
36787;SDS011;22738;45.560;9.434;2023-07-13T05:20:13;13.75;;;2.35;;
36787;SDS011;22738;45.560;9.434;2023-07-13T05:26:55;2.25;;;1.67;;
36787;SDS011;22738;45.560;9.434;2023-07-13T05:33:36;5.65;;;2.22;;
36787;SDS011;22738;45.560;9.434;2023-07-13T05:40:17;3.47;;;2.00;;
36787;SDS011;22738;45.560;9.434;2023-07-13T05:46:58;2.78;;;2.00;;
36787;SDS011;22738;45.560;9.434;2023-07-13T05:53:39;4.43;;;1.65;;
36787;SDS011;22738;45.560;9.434;2023-07-13T06:00:21;5.78;;;1.77;;
36787;SDS011;22738;45.560;9.434;2023-07-13T06:07:02;2.45;;;1.33;;
36787;SDS011;22738;45.560;9.434;2023-07-13T06:13:43;4.32;;;1.80;;
36787;SDS011;22738;45.560;9.434;2023-07-13T06:20:24;8.20;;;1.67;;
36787;SDS011;22738;45.560;9.434;2023-07-13T06:27:05;4.57;;;1.40;;
36787;SDS011;22738;45.560;9.434;2023-07-13T06:33:46;7.22;;;1.50;;
36787;SDS011;22738;45.560;9.434;2023-07-13T06:40:28;5.60;;;1.47;;
36787;SDS011;22738;45.560;9.434;2023-07-13T06:47:11;3.63;;;1.52;;
36787;SDS011;22738;45.560;9.434;2023-07-13T06:53:53;3.60;;;1.67;;
36787;SDS011;22738;45.560;9.434;2023-07-13T07:00:35;7.57;;;2.10;;
36787;SDS011;22738;45.560;9.434;2023-07-13T07:07:16;6.15;;;1.75;;
36787;SDS011;22738;45.560;9.434;2023-07-13T07:13:57;3.25;;;1.80;;
36787;SDS011;22738;45.560;9.434;2023-07-13T07:20:38;4.28;;;2.03;;
36787;SDS011;22738;45.560;9.434;2023-07-13T07:27:21;5.28;;;2.10;;
36787;SDS011;22738;45.560;9.434;2023-07-13T07:34:02;7.05;;;2.17;;
36787;SDS011;22738;45.560;9.434;2023-07-13T07:40:44;7.47;;;2.35;;
36787;SDS011;22738;45.560;9.434;2023-07-13T07:47:26;2.70;;;1.67;;
36787;SDS011;22738;45.560;9.434;2023-07-13T07:54:07;4.95;;;2.50;;
36787;SDS011;22738;45.560;9.434;2023-07-13T08:00:48;5.97;;;2.40;;
36787;SDS011;22738;45.560;9.434;2023-07-13T08:07:32;8.15;;;3.58;;
36787;SDS011;22738;45.560;9.434;2023-07-13T08:14:13;6.65;;;3.45;;
36787;SDS011;22738;45.560;9.434;2023-07-13T08:20:54;5.15;;;3.40;;
36787;SDS011;22738;45.560;9.434;2023-07-13T08:27:39;7.35;;;2.42;;
36787;SDS011;22738;45.560;9.434;2023-07-13T08:34:20;5.13;;;3.08;;
36787;SDS011;22738;45.560;9.434;2023-07-13T08:41:03;5.75;;;2.15;;
36787;SDS011;22738;45.560;9.434;2023-07-13T08:54:44;3.35;;;1.65;;
36787;SDS011;22738;45.560;9.434;2023-07-13T09:01:32;7.45;;;2.22;;
36787;SDS011;22738;45.560;9.434;2023-07-13T09:08:29;3.72;;;1.77;;
36787;SDS011;22738;45.560;9.434;2023-07-13T09:16:01;5.93;;;2.72;;
36787;SDS011;22738;45.560;9.434;2023-07-13T09:22:26;5.22;;;2.40;;
36787;SDS011;22738;45.560;9.434;2023-07-13T09:29:11;6.22;;;2.47;;
36787;SDS011;22738;45.560;9.434;2023-07-13T09:35:58;4.93;;;2.33;;
36787;SDS011;22738;45.560;9.434;2023-07-13T09:42:42;6.15;;;3.03;;
36787;SDS011;22738;45.560;9.434;2023-07-13T09:49:25;5.93;;;2.85;;
36787;SDS011;22738;45.560;9.434;2023-07-13T09:56:18;5.90;;;3.40;;
36787;SDS011;22738;45.560;9.434;2023-07-13T10:10:15;8.68;;;4.80;;
36787;SDS011;22738;45.560;9.434;2023-07-13T10:17:02;10.45;;;3.42;;
36787;SDS011;22738;45.560;9.434;2023-07-13T10:23:47;9.23;;;5.40;;
36787;SDS011;22738;45.560;9.434;2023-07-13T10:30:35;10.73;;;5.15;;
36787;SDS011;22738;45.560;9.434;2023-07-13T10:37:29;6.22;;;3.35;;
36787;SDS011;22738;45.560;9.434;2023-07-13T10:44:18;10.07;;;3.47;;
36787;SDS011;22738;45.560;9.434;2023-07-13T10:51:06;5.37;;;1.97;;
36787;SDS011;22738;45.560;9.434;2023-07-13T10:57:48;10.60;;;3.45;;
36787;SDS011;22738;45.560;9.434;2023-07-13T11:04:31;13.57;;;4.57;;
36787;SDS011;22738;45.560;9.434;2023-07-13T11:18:11;6.25;;;3.33;;
36787;SDS011;22738;45.560;9.434;2023-07-13T11:25:02;6.95;;;2.50;;
36787;SDS011;22738;45.560;9.434;2023-07-13T11:32:24;4.20;;;2.63;;
36787;SDS011;22738;45.560;9.434;2023-07-13T11:39:17;8.18;;;2.30;;
36787;SDS011;22738;45.560;9.434;2023-07-13T11:46:12;7.72;;;1.98;;
36787;SDS011;22738;45.560;9.434;2023-07-13T11:53:11;4.85;;;1.92;;
36787;SDS011;22738;45.560;9.434;2023-07-13T11:59:52;6.25;;;3.25;;
36787;SDS011;22738;45.560;9.434;2023-07-13T12:06:36;7.38;;;2.50;;
36787;SDS011;22738;45.560;9.434;2023-07-13T12:13:21;7.10;;;2.90;;
36787;SDS011;22738;45.560;9.434;2023-07-13T12:20:03;6.32;;;2.22;;
36787;SDS011;22738;45.560;9.434;2023-07-13T12:26:59;3.88;;;1.95;;
36787;SDS011;22738;45.560;9.434;2023-07-13T12:33:43;7.72;;;2.85;;
36787;SDS011;22738;45.560;9.434;2023-07-13T12:40:26;7.50;;;2.33;;
36787;SDS011;22738;45.560;9.434;2023-07-13T12:47:12;8.32;;;2.70;;
36787;SDS011;22738;45.560;9.434;2023-07-13T12:54:17;6.30;;;2.28;;
36787;SDS011;22738;45.560;9.434;2023-07-13T13:01:01;9.52;;;2.40;;
36787;SDS011;22738;45.560;9.434;2023-07-13T13:07:43;7.75;;;3.85;;
36787;SDS011;22738;45.560;9.434;2023-07-13T13:14:29;4.68;;;2.50;;
36787;SDS011;22738;45.560;9.434;2023-07-13T13:21:10;16.70;;;4.30;;
36787;SDS011;22738;45.560;9.434;2023-07-13T13:27:52;9.60;;;3.05;;
36787;SDS011;22738;45.560;9.434;2023-07-13T13:34:33;11.23;;;3.63;;
36787;SDS011;22738;45.560;9.434;2023-07-13T13:41:14;6.82;;;3.88;;
36787;SDS011;22738;45.560;9.434;2023-07-13T13:47:56;13.27;;;3.97;;
36787;SDS011;22738;45.560;9.434;2023-07-13T13:54:38;7.43;;;3.03;;
36787;SDS011;22738;45.560;9.434;2023-07-13T14:08:03;7.55;;;3.92;;
36787;SDS011;22738;45.560;9.434;2023-07-13T14:14:44;9.32;;;3.78;;
36787;SDS011;22738;45.560;9.434;2023-07-13T14:21:28;11.30;;;4.40;;
36787;SDS011;22738;45.560;9.434;2023-07-13T14:28:28;7.60;;;3.47;;
36787;SDS011;22738;45.560;9.434;2023-07-13T14:35:13;11.52;;;5.65;;
36787;SDS011;22738;45.560;9.434;2023-07-13T14:41:55;5.53;;;2.90;;
36787;SDS011;22738;45.560;9.434;2023-07-13T14:48:37;5.68;;;3.45;;
36787;SDS011;22738;45.560;9.434;2023-07-13T14:55:18;6.85;;;3.50;;
36787;SDS011;22738;45.560;9.434;2023-07-13T15:02:00;4.22;;;2.67;;
36787;SDS011;22738;45.560;9.434;2023-07-13T15:08:42;8.68;;;3.80;;
36787;SDS011;22738;45.560;9.434;2023-07-13T15:15:24;7.18;;;3.25;;
36787;SDS011;22738;45.560;9.434;2023-07-13T15:22:07;12.07;;;3.95;;
36787;SDS011;22738;45.560;9.434;2023-07-13T15:28:50;15.55;;;4.32;;
36787;SDS011;22738;45.560;9.434;2023-07-13T15:35:33;8.30;;;3.85;;
36787;SDS011;22738;45.560;9.434;2023-07-13T15:49:00;8.10;;;3.55;;
36787;SDS011;22738;45.560;9.434;2023-07-13T15:55:41;8.13;;;3.30;;
36787;SDS011;22738;45.560;9.434;2023-07-13T16:02:22;6.80;;;3.40;;
36787;SDS011;22738;45.560;9.434;2023-07-13T16:09:03;10.15;;;3.90;;
36787;SDS011;22738;45.560;9.434;2023-07-13T16:15:48;5.57;;;3.30;;
36787;SDS011;22738;45.560;9.434;2023-07-13T16:22:29;12.02;;;3.60;;
36787;SDS011;22738;45.560;9.434;2023-07-13T16:36:04;9.10;;;3.50;;
36787;SDS011;22738;45.560;9.434;2023-07-13T16:42:54;10.45;;;4.07;;
36787;SDS011;22738;45.560;9.434;2023-07-13T16:49:37;9.77;;;3.50;;
36787;SDS011;22738;45.560;9.434;2023-07-13T16:56:18;13.63;;;3.90;;
36787;SDS011;22738;45.560;9.434;2023-07-13T17:03:02;9.27;;;3.90;;
36787;SDS011;22738;45.560;9.434;2023-07-13T17:09:49;16.33;;;4.20;;
36787;SDS011;22738;45.560;9.434;2023-07-13T17:16:32;9.70;;;3.92;;
36787;SDS011;22738;45.560;9.434;2023-07-13T17:30:04;9.57;;;3.75;;
36787;SDS011;22738;45.560;9.434;2023-07-13T17:36:48;8.90;;;3.97;;
36787;SDS011;22738;45.560;9.434;2023-07-13T17:43:29;7.20;;;3.67;;
36787;SDS011;22738;45.560;9.434;2023-07-13T17:50:14;8.43;;;4.10;;
36787;SDS011;22738;45.560;9.434;2023-07-13T17:56:57;17.00;;;5.30;;
36787;SDS011;22738;45.560;9.434;2023-07-13T18:03:41;12.18;;;4.10;;
36787;SDS011;22738;45.560;9.434;2023-07-13T18:10:29;9.43;;;3.97;;
36787;SDS011;22738;45.560;9.434;2023-07-13T18:17:12;9.33;;;4.03;;
36787;SDS011;22738;45.560;9.434;2023-07-13T18:23:55;7.07;;;3.88;;
36787;SDS011;22738;45.560;9.434;2023-07-13T18:30:36;9.48;;;4.10;;
36787;SDS011;22738;45.560;9.434;2023-07-13T18:37:18;12.98;;;5.00;;
36787;SDS011;22738;45.560;9.434;2023-07-13T18:44:00;7.65;;;4.10;;
36787;SDS011;22738;45.560;9.434;2023-07-13T18:50:41;10.65;;;4.40;;
36787;SDS011;22738;45.560;9.434;2023-07-13T18:57:24;11.52;;;5.13;;
36787;SDS011;22738;45.560;9.434;2023-07-13T19:04:22;12.70;;;4.88;;
36787;SDS011;22738;45.560;9.434;2023-07-13T19:11:14;16.02;;;4.35;;
36787;SDS011;22738;45.560;9.434;2023-07-13T19:17:58;16.45;;;4.88;;
36787;SDS011;22738;45.560;9.434;2023-07-13T19:24:40;9.93;;;4.03;;
36787;SDS011;22738;45.560;9.434;2023-07-13T19:38:14;7.60;;;3.65;;
36787;SDS011;22738;45.560;9.434;2023-07-13T19:44:58;7.50;;;3.20;;
36787;SDS011;22738;45.560;9.434;2023-07-13T19:51:43;11.45;;;4.57;;
36787;SDS011;22738;45.560;9.434;2023-07-13T19:58:26;10.65;;;5.32;;
36787;SDS011;22738;45.560;9.434;2023-07-13T20:05:07;8.75;;;4.18;;
36787;SDS011;22738;45.560;9.434;2023-07-13T20:11:49;6.93;;;4.18;;
36787;SDS011;22738;45.560;9.434;2023-07-13T20:18:32;6.87;;;4.83;;
36787;SDS011;22738;45.560;9.434;2023-07-13T20:25:14;11.60;;;4.82;;
36787;SDS011;22738;45.560;9.434;2023-07-13T20:32:01;5.50;;;3.63;;
36787;SDS011;22738;45.560;9.434;2023-07-13T20:38:43;9.55;;;4.10;;
36787;SDS011;22738;45.560;9.434;2023-07-13T20:45:25;7.53;;;4.20;;
36787;SDS011;22738;45.560;9.434;2023-07-13T20:52:11;7.38;;;3.53;;
36787;SDS011;22738;45.560;9.434;2023-07-13T20:58:53;5.97;;;2.90;;
36787;SDS011;22738;45.560;9.434;2023-07-13T21:05:35;5.50;;;2.85;;
36787;SDS011;22738;45.560;9.434;2023-07-13T21:12:18;6.35;;;2.63;;
36787;SDS011;22738;45.560;9.434;2023-07-13T21:18:59;5.97;;;2.90;;
36787;SDS011;22738;45.560;9.434;2023-07-13T21:25:40;12.38;;;4.05;;
36787;SDS011;22738;45.560;9.434;2023-07-13T21:32:22;10.27;;;3.20;;
36787;SDS011;22738;45.560;9.434;2023-07-13T21:39:04;6.95;;;2.75;;
36787;SDS011;22738;45.560;9.434;2023-07-13T21:52:29;5.68;;;2.95;;
36787;SDS011;22738;45.560;9.434;2023-07-13T21:59:14;7.10;;;2.83;;
36787;SDS011;22738;45.560;9.434;2023-07-13T22:06:01;6.50;;;3.60;;
36787;SDS011;22738;45.560;9.434;2023-07-13T22:12:43;6.47;;;2.93;;
36787;SDS011;22738;45.560;9.434;2023-07-13T22:19:25;4.78;;;2.25;;
36787;SDS011;22738;45.560;9.434;2023-07-13T22:33:12;9.68;;;3.25;;
36787;SDS011;22738;45.560;9.434;2023-07-13T22:39:55;6.20;;;2.65;;
36787;SDS011;22738;45.560;9.434;2023-07-13T22:46:38;6.60;;;2.97;;
36787;SDS011;22738;45.560;9.434;2023-07-13T22:53:20;6.72;;;3.30;;
36787;SDS011;22738;45.560;9.434;2023-07-13T23:00:05;9.35;;;2.90;;
36787;SDS011;22738;45.560;9.434;2023-07-13T23:06:50;8.32;;;3.38;;
36787;SDS011;22738;45.560;9.434;2023-07-13T23:13:32;6.75;;;3.15;;
36787;SDS011;22738;45.560;9.434;2023-07-13T23:20:22;6.20;;;3.03;;
36787;SDS011;22738;45.560;9.434;2023-07-13T23:27:06;5.80;;;3.45;;
36787;SDS011;22738;45.560;9.434;2023-07-13T23:33:48;18.42;;;5.30;;
36787;SDS011;22738;45.560;9.434;2023-07-13T23:40:29;5.78;;;3.60;;
36787;SDS011;22738;45.560;9.434;2023-07-13T23:47:10;11.27;;;4.43;;
36787;SDS011;22738;45.560;9.434;2023-07-13T23:53:51;13.02;;;4.65;;
